Latest Weather Observations for Territory Grape Farm

IDD60801

Issued at 5:01 pm CST Friday 6 March 2015 (issued every 30 minutes, with the page automatically refreshed every 10 minutes)

About weather observations | Map of weather stations | Latest weather observations for NT | Other Formats
Station Details ID: 015643 Name: TERRITORY GRAPE FARM Lat: -22.45 Lon: 133.64 Height: 565.6 m
Data from the previous 72 hours. | See also: Recent months at Territory Grape Farm
Date/Time
CST
Temp
°C
App
Temp
°C
Dew
Point
Rel
Hum
%
Delta-T
°C
Wind Press
QNH
hPa
Press
MSL
hPa
Rain
since 9 am
mm
Dir
 
Spd
km/h
Gust
km/h
Spd
kts
Gust
kts
06/05:00pm 34.0 30.1 5.5 17 15.7 - 15 20 8 11 1010.9 - -
06/04:30pm 34.3 29.0 4.9 16 16.1 - 22 28 12 15 1011.0 1007.1 -
06/04:00pm 34.3 - 4.9 16 16.0 - - - - - 1011.1 - -
06/03:30pm 34.6 - 5.1 16 16.2 - - - - - 1011.5 1007.6 -
06/03:00pm 33.7 - 4.4 16 15.8 - - - - - 1011.9 1008.0 0.0
06/02:30pm 33.8 - 5.4 17 15.6 - - - - - 1012.2 1008.4 -
06/02:00pm 33.5 - 5.1 17 15.5 - - - - - 1012.6 - -
06/01:30pm 32.6 - 4.4 17 15.1 - - - - - 1013.3 1009.4 -
06/01:00pm 32.2 - 4.9 18 14.7 - - - - - 1013.8 - -
06/12:30pm 31.6 - 5.2 19 14.3 - - - - - 1014.5 1010.6 -
06/12:00pm 31.1 - 5.5 20 13.9 - - - - - 1014.9 1011.0 -
06/11:30am 30.0 - 5.3 21 13.2 - - - - - 1015.5 1011.7 -
06/11:00am 29.2 - 5.3 22 12.8 - - - - - 1015.9 - -
06/10:30am 28.8 - 6.2 24 12.2 - - - - - 1016.3 1012.4 -
06/10:00am 27.6 - 5.8 25 11.6 - - - - - 1016.7 - -
06/09:30am 26.7 - 5.6 26 11.2 - - - - - 1016.6 1012.7 -
06/09:00am 25.9 - 6.0 28 10.6 - - - - - 1016.7 1012.8 0.0
06/08:30am 25.4 - 6.1 29 10.2 - - - - - 1016.4 1012.5 -
06/08:00am 24.5 18.8 6.7 32 9.5 - 26 33 14 18 1016.1 - -
06/07:30am 22.6 18.2 7.6 38 8.0 - 20 24 11 13 1015.9 1012.1 -
06/07:00am 20.2 - 8.2 46 6.4 - - - - - 1015.7 - -
06/06:30am 20.4 17.9 8.1 45 6.6 - 11 11 6 6 1015.6 1011.8 -
06/06:00am 20.0 17.5 8.0 46 6.4 - 11 15 6 8 1015.1 1011.2 -
06/05:30am 20.8 - 7.8 43 6.9 - - - - - 1014.9 1011.0 -
06/05:00am 20.7 - 8.4 45 6.6 - - - - - 1014.7 - -
06/04:30am 20.9 - 8.5 45 6.7 - - - - - 1014.7 1010.8 -
06/04:00am 21.3 - 9.2 46 6.6 - - - - - 1015.0 - -
06/03:30am 21.0 - 10.8 52 5.7 - - - - - 1014.8 1010.9 -
06/03:00am 21.4 20.2 11.7 54 5.6 - 9 9 5 5 1015.0 1011.1 0.0
06/02:30am 22.0 21.7 11.4 51 6.1 - 4 6 2 3 1015.2 1011.3 -
06/02:00am 23.6 21.9 9.9 42 7.7 - 9 11 5 6 1015.3 - -
06/01:30am 24.2 - 9.8 40 8.1 - - - - - 1015.5 1011.7 -
06/01:00am 25.2 23.3 9.1 36 9.0 - 9 13 5 7 1015.5 - -
06/12:30am 26.2 - 9.1 34 9.6 - - - - - 1015.7 1011.9 -
06/12:00am 26.6 23.5 9.0 33 9.9 - 15 19 8 10 1015.7 1011.9 -
 
Date/Time
CST
Temp
°C
App
Temp
°C
Dew
Point
Rel
Hum
%
Delta-T
°C
Wind Press
QNH
hPa
Press
MSL
hPa
Rain
since 9 am
mm
Dir
 
Spd
km/h
Gust
km/h
Spd
kts
Gust
kts
05/11:30pm 26.5 - 9.4 34 9.6 - - - - - 1015.7 1011.9 -
05/11:00pm 26.0 24.4 10.2 37 9.0 - 9 9 5 5 1015.9 - -
05/10:30pm 27.2 - 9.5 33 10.0 - - - - - 1015.7 1011.9 -
05/10:00pm 28.4 - 8.7 29 11.1 - - - - - 1015.6 - -
05/09:30pm 29.9 - 8.3 26 12.2 - - - - - 1015.3 1011.4 -
05/09:00pm 30.6 - 8.9 26 12.4 - - - - - 1014.8 1010.9 0.0
05/08:30pm 31.1 - 9.3 26 12.6 - - - - - 1014.5 1010.6 -
05/08:00pm 31.4 - 10.2 27 12.4 - - - - - 1014.0 - -
05/07:30pm 31.8 - 11.6 29 12.1 - - - - - 1013.5 1009.6 -
05/07:00pm 33.2 - 11.1 26 13.2 - - - - - 1013.0 - -
05/06:30pm 34.0 - 11.8 26 13.4 - - - - - 1012.7 1008.8 -
05/06:00pm 34.8 32.2 11.9 25 13.9 - 17 19 9 10 1012.4 1008.6 -
05/05:30pm 35.1 - 12.1 25 14.1 - - - - - 1012.1 1008.2 -
05/05:00pm 35.6 - 13.1 25 14.0 - - - - - 1012.2 - -
05/04:30pm 35.8 - 13.3 26 14.0 - - - - - 1012.3 1008.5 -
05/04:00pm 35.9 - 13.4 26 14.0 - - - - - 1012.7 - -
05/03:30pm 35.4 - 13.0 26 13.9 - - - - - 1012.9 1009.0 -
05/03:00pm 35.8 - 13.3 26 14.0 - - - - - 1013.1 1009.2 0.0
05/02:30pm 35.4 - 13.5 26 13.7 - - - - - 1013.7 1009.8 -
05/02:00pm 34.9 - 13.7 28 13.2 - - - - - 1014.0 - -
05/01:30pm 34.3 - 13.2 28 13.1 - - - - - 1014.7 1010.8 -
05/01:00pm 33.9 - 13.9 30 12.5 - - - - - 1015.3 - -
05/12:30pm 34.0 - 14.0 30 12.5 - - - - - 1015.9 1012.1 -
05/12:00pm 33.4 - 14.0 31 12.1 - - - - - 1016.3 1012.4 -
05/11:30am 33.1 - 13.7 31 12.0 - - - - - 1016.7 1012.8 -
05/11:00am 32.3 - 13.0 31 11.8 - - - - - 1017.0 - -
05/10:30am 30.9 - 13.2 34 10.8 - - - - - 1017.3 1013.5 -
05/10:00am 30.8 - 12.7 33 11.0 - - - - - 1017.2 - -
05/09:30am 29.4 - 11.9 34 10.4 - - - - - 1017.1 1013.3 -
05/09:00am 29.5 - 12.0 34 10.4 - - - - - 1017.2 1013.4 13.0
05/08:30am 29.3 - 10.9 32 10.8 - - - - - 1017.1 1013.3 -
05/08:00am 28.4 - 13.5 40 9.1 - - - - - 1017.1 - -
05/07:30am 26.9 - 14.3 46 7.7 - - - - - 1016.8 1012.9 -
05/07:00am 26.4 - 13.5 45 7.8 - - - - - 1016.4 - -
05/06:30am 25.9 - 14.7 50 6.9 - - - - - 1015.6 1011.8 -
05/06:00am 26.5 - 15.5 50 6.8 - - - - - 1015.1 1011.2 -
05/05:30am 25.8 - 18.2 63 4.9 - - - - - 1014.4 1010.5 -
05/05:00am 27.1 - 20.7 68 4.3 - - - - - 1013.8 - -
05/04:30am 27.3 - 21.1 69 4.2 - - - - - 1013.3 1009.4 -
05/04:00am 27.1 - 21.4 71 3.9 - - - - - 1013.2 - -
05/03:30am 26.9 - 21.0 70 4.0 - - - - - 1013.4 1009.5 -
05/03:00am 26.9 - 20.7 69 4.2 - - - - - 1013.2 1009.3 13.0
05/02:30am 26.1 - 21.3 75 3.2 - - - - - 1013.4 1009.5 -
05/02:00am 26.3 - 21.3 74 3.4 - - - - - 1013.2 - -
05/01:30am 26.3 - 21.3 74 3.4 - - - - - 1013.5 1009.6 -
05/01:00am 26.5 - 21.7 75 3.3 - - - - - 1013.6 - -
05/12:30am 26.6 - 22.9 80 2.6 - - - - - 1013.8 1010.0 -
05/12:00am 26.6 - 22.9 80 2.6 - - - - - 1013.8 1010.0 -
 
Date/Time
CST
Temp
°C
App
Temp
°C
Dew
Point
Rel
Hum
%
Delta-T
°C
Wind Press
QNH
hPa
Press
MSL
hPa
Rain
since 9 am
mm
Dir
 
Spd
km/h
Gust
km/h
Spd
kts
Gust
kts
04/11:30pm 26.1 - 22.0 78 2.8 - - - - - 1014.2 1010.4 -
04/11:00pm 26.4 - 21.2 73 3.5 - - - - - 1014.7 - -
04/10:30pm 27.5 - 20.3 65 4.8 - - - - - 1015.4 1011.5 -
04/10:09pm 26.8 - 17.3 56 6.1 - - - - - 1014.9 - -
04/10:00pm 32.0 - 18.2 43 9.1 - - - - - 1013.9 - -
04/09:30pm 32.1 - 17.6 42 9.5 - - - - - 1013.5 1009.6 -
04/09:00pm 32.7 - 16.5 37 10.5 - - - - - 1013.1 1009.2 0.0
04/08:30pm 33.0 - 15.9 35 11.0 - - - - - 1012.8 1008.9 -
04/08:00pm 33.7 - 15.2 33 11.8 - - - - - 1012.1 - -
04/07:30pm 34.2 - 14.7 31 12.3 - - - - - 1011.7 1007.8 -
04/07:00pm 35.2 - 16.0 31 12.4 - - - - - 1011.6 - -
04/06:30pm 35.8 - 17.0 32 12.3 - - - - - 1011.5 1007.6 -
04/06:00pm 36.8 - 16.9 31 13.1 - - - - - 1011.0 1007.1 -
04/05:30pm 37.0 - 16.0 28 13.6 - - - - - 1010.7 1006.8 -
04/05:00pm 36.7 - 16.8 30 13.0 - - - - - 1010.8 - -
04/04:30pm 37.8 - 16.1 27 14.1 - - - - - 1010.7 1006.8 -
04/04:00pm 38.4 - 16.1 27 14.6 - - - - - 1010.9 - -
04/03:30pm 38.4 - 16.7 28 14.3 - - - - - 1010.9 1007.0 -
04/03:00pm 37.9 - 15.7 27 14.4 - - - - - 1011.2 1007.3 0.0
04/02:30pm 38.3 - 16.6 28 14.3 - - - - - 1011.5 1007.6 -
04/02:00pm 37.9 - 17.3 29 13.6 - - - - - 1011.8 - -
04/01:30pm 38.8 - 18.6 30 13.6 - - - - - 1012.2 1008.4 -
04/01:00pm 37.8 - 18.3 32 13.1 - - - - - 1012.8 - -
04/12:30pm 37.5 - 18.5 32 12.8 - - - - - 1013.2 1009.3 -
04/12:00pm 36.8 - 18.4 34 12.3 - - - - - 1013.4 1009.5 -
04/11:30am 36.1 - 18.2 34 11.9 - - - - - 1013.7 1009.8 -
04/11:00am 35.5 - 17.2 33 12.0 - - - - - 1014.2 - -
04/10:30am 35.3 - 14.0 28 13.4 - - - - - 1014.4 1010.5 -
04/10:00am 34.8 - 11.2 24 14.2 - - - - - 1014.4 - -
04/09:30am 33.7 - 12.1 27 13.1 - - - - - 1014.5 1010.6 -
04/09:00am 33.1 - 13.2 30 12.3 - - - - - 1014.5 1010.6 0.0
04/08:30am 31.1 - 17.4 44 8.9 - - - - - 1014.1 1010.3 -
04/08:00am 28.3 - 18.7 56 6.3 - - - - - 1014.0 - -
04/07:30am 26.4 - 16.6 55 6.2 - - - - - 1013.4 1009.5 -
04/07:00am 26.0 - 19.2 66 4.5 - - - - - 1013.2 - -
04/06:30am 25.7 - 19.1 67 4.3 - - - - - 1013.1 1009.2 -
04/06:00am 26.5 - 19.4 65 4.7 - - - - - 1012.8 1008.9 -
04/05:30am 26.8 - 19.4 64 4.9 - - - - - 1012.4 1008.6 -
04/05:00am 26.7 - 18.0 59 5.6 - - - - - 1012.0 - -
04/04:30am 27.2 - 18.8 60 5.5 - - - - - 1011.6 1007.7 -
04/04:00am 26.8 - 18.4 60 5.5 - - - - - 1011.2 - -
04/03:30am 27.1 - 18.1 58 5.8 - - - - - 1010.9 1007.0 -
04/03:00am 27.3 - 16.9 53 6.6 - - - - - 1010.9 1007.0 0.0
04/02:30am 28.5 - 17.7 52 7.0 - - - - - 1011.1 1007.2 -
04/02:00am 29.4 - 15.5 43 8.7 - - - - - 1011.2 - -
04/01:30am 30.7 - 14.8 38 10.0 - - - - - 1011.6 1007.7 -
04/01:00am 32.0 - 11.2 28 12.4 - - - - - 1012.0 - -
04/12:30am 33.3 - 8.7 22 14.2 - - - - - 1012.2 1008.4 -
04/12:00am 33.5 - 8.9 22 14.2 - - - - - 1012.0 1008.1 -
 
Date/Time
CST
Temp
°C
App
Temp
°C
Dew
Point
Rel
Hum
%
Delta-T
°C
Wind Press
QNH
hPa
Press
MSL
hPa
Rain
since 9 am
mm
Dir
 
Spd
km/h
Gust
km/h
Spd
kts
Gust
kts
03/11:30pm 31.7 - 8.7 24 13.2 - - - - - 1011.4 1007.5 -
03/11:00pm 32.0 - 8.3 23 13.5 - - - - - 1011.3 - -
03/10:30pm 32.9 - 8.4 22 14.0 - - - - - 1011.4 1007.5 -
03/10:00pm 33.0 - 8.5 22 14.1 - - - - - 1011.3 - -
03/09:30pm 34.1 - 8.7 21 14.7 - - - - - 1011.1 1007.2 -
03/09:00pm 34.4 - 8.2 20 15.1 - - - - - 1010.8 1006.9 0.0
03/08:30pm 34.2 - 8.0 20 15.0 - - - - - 1010.2 1006.3 -
03/08:00pm 35.5 - 7.6 18 16.0 - - - - - 1009.6 - -
03/07:30pm 36.8 - 7.8 17 16.8 - - - - - 1009.4 1005.5 -
03/07:00pm 38.2 - 7.0 15 17.9 - - - - - 1009.1 - -
03/06:30pm 39.1 - 6.7 14 18.6 - - - - - 1009.1 1005.2 -
03/06:00pm 39.5 - 7.1 14 18.8 - - - - - 1008.8 1004.8 -
03/05:30pm 40.1 - 6.4 13 19.4 - - - - - 1008.6 1004.7 -

Other Formats:

Comma delimited format used in spreadsheet applications
http://www.bom.gov.au/fwo/IDD60801/IDD60801.94328.axf

JavaScript Object Notation format (JSON) in row-major order
http://www.bom.gov.au/fwo/IDD60801/IDD60801.94328.json